sensor_id;sensor_type;location;lat;lon;timestamp;P1;durP1;ratioP1;P2;durP2;ratioP2
55633;SDS011;41504;53.162;6.788;2022-12-10T00:01:10;47.40;;;25.88;;
55633;SDS011;41504;53.162;6.788;2022-12-10T00:03:44;42.30;;;23.92;;
55633;SDS011;41504;53.162;6.788;2022-12-10T00:06:11;41.00;;;23.00;;
55633;SDS011;41504;53.162;6.788;2022-12-10T00:08:39;45.55;;;24.65;;
55633;SDS011;41504;53.162;6.788;2022-12-10T00:11:09;64.50;;;30.60;;
55633;SDS011;41504;53.162;6.788;2022-12-10T00:13:36;54.70;;;28.00;;
55633;SDS011;41504;53.162;6.788;2022-12-10T00:16:03;52.08;;;28.52;;
55633;SDS011;41504;53.162;6.788;2022-12-10T00:18:30;44.53;;;24.27;;
55633;SDS011;41504;53.162;6.788;2022-12-10T00:20:57;44.97;;;25.35;;
55633;SDS011;41504;53.162;6.788;2022-12-10T00:23:22;47.15;;;25.88;;
55633;SDS011;41504;53.162;6.788;2022-12-10T00:25:49;44.22;;;25.33;;
55633;SDS011;41504;53.162;6.788;2022-12-10T00:28:15;48.80;;;26.13;;
55633;SDS011;41504;53.162;6.788;2022-12-10T00:30:40;46.75;;;25.33;;
55633;SDS011;41504;53.162;6.788;2022-12-10T00:33:09;52.47;;;26.25;;
55633;SDS011;41504;53.162;6.788;2022-12-10T00:35:35;46.05;;;25.92;;
55633;SDS011;41504;53.162;6.788;2022-12-10T00:38:01;44.83;;;25.10;;
55633;SDS011;41504;53.162;6.788;2022-12-10T00:40:30;46.50;;;25.73;;
55633;SDS011;41504;53.162;6.788;2022-12-10T00:42:55;48.03;;;24.60;;
55633;SDS011;41504;53.162;6.788;2022-12-10T00:45:21;45.47;;;23.88;;
55633;SDS011;41504;53.162;6.788;2022-12-10T00:47:47;41.42;;;22.63;;
55633;SDS011;41504;53.162;6.788;2022-12-10T00:50:12;48.33;;;24.60;;
55633;SDS011;41504;53.162;6.788;2022-12-10T00:52:38;41.90;;;22.17;;
55633;SDS011;41504;53.162;6.788;2022-12-10T00:55:10;46.70;;;24.77;;
55633;SDS011;41504;53.162;6.788;2022-12-10T00:57:36;49.97;;;25.90;;
55633;SDS011;41504;53.162;6.788;2022-12-10T01:00:02;46.65;;;24.80;;
55633;SDS011;41504;53.162;6.788;2022-12-10T01:02:30;47.80;;;24.98;;
55633;SDS011;41504;53.162;6.788;2022-12-10T01:04:56;43.15;;;23.40;;
55633;SDS011;41504;53.162;6.788;2022-12-10T01:07:22;45.15;;;22.92;;
55633;SDS011;41504;53.162;6.788;2022-12-10T01:09:47;45.08;;;24.00;;
55633;SDS011;41504;53.162;6.788;2022-12-10T01:12:18;44.08;;;23.08;;
55633;SDS011;41504;53.162;6.788;2022-12-10T01:14:44;45.45;;;23.15;;
55633;SDS011;41504;53.162;6.788;2022-12-10T01:17:10;45.53;;;23.42;;
55633;SDS011;41504;53.162;6.788;2022-12-10T01:19:35;41.53;;;22.13;;
55633;SDS011;41504;53.162;6.788;2022-12-10T01:22:02;45.88;;;23.02;;
55633;SDS011;41504;53.162;6.788;2022-12-10T01:24:28;48.95;;;24.17;;
55633;SDS011;41504;53.162;6.788;2022-12-10T01:26:55;45.80;;;24.35;;
55633;SDS011;41504;53.162;6.788;2022-12-10T01:29:21;45.70;;;24.48;;
55633;SDS011;41504;53.162;6.788;2022-12-10T01:31:49;45.05;;;24.10;;
55633;SDS011;41504;53.162;6.788;2022-12-10T01:34:17;42.92;;;24.35;;
55633;SDS011;41504;53.162;6.788;2022-12-10T01:36:43;48.00;;;25.20;;
55633;SDS011;41504;53.162;6.788;2022-12-10T01:39:16;45.83;;;24.40;;
55633;SDS011;41504;53.162;6.788;2022-12-10T01:41:44;50.38;;;26.95;;
55633;SDS011;41504;53.162;6.788;2022-12-10T01:46:39;51.35;;;25.95;;
55633;SDS011;41504;53.162;6.788;2022-12-10T01:49:07;48.30;;;26.50;;
55633;SDS011;41504;53.162;6.788;2022-12-10T01:51:38;45.80;;;24.75;;
55633;SDS011;41504;53.162;6.788;2022-12-10T01:54:07;49.88;;;25.73;;
55633;SDS011;41504;53.162;6.788;2022-12-10T01:56:41;48.70;;;24.88;;
55633;SDS011;41504;53.162;6.788;2022-12-10T02:01:47;52.72;;;27.52;;
55633;SDS011;41504;53.162;6.788;2022-12-10T02:04:50;48.55;;;25.75;;
55633;SDS011;41504;53.162;6.788;2022-12-10T02:12:57;48.95;;;26.75;;
55633;SDS011;41504;53.162;6.788;2022-12-10T02:15:33;50.30;;;26.00;;
55633;SDS011;41504;53.162;6.788;2022-12-10T02:20:41;47.53;;;26.23;;
55633;SDS011;41504;53.162;6.788;2022-12-10T02:23:51;48.67;;;26.83;;
55633;SDS011;41504;53.162;6.788;2022-12-10T02:29:11;51.95;;;26.55;;
55633;SDS011;41504;53.162;6.788;2022-12-10T02:31:44;48.80;;;25.60;;
55633;SDS011;41504;53.162;6.788;2022-12-10T02:34:17;49.78;;;27.73;;
55633;SDS011;41504;53.162;6.788;2022-12-10T02:36:44;46.70;;;26.25;;
55633;SDS011;41504;53.162;6.788;2022-12-10T02:39:14;48.88;;;25.77;;
55633;SDS011;41504;53.162;6.788;2022-12-10T02:41:46;48.87;;;25.27;;
55633;SDS011;41504;53.162;6.788;2022-12-10T02:44:19;51.15;;;25.92;;
55633;SDS011;41504;53.162;6.788;2022-12-10T02:46:49;47.28;;;25.80;;
55633;SDS011;41504;53.162;6.788;2022-12-10T02:49:17;50.40;;;27.63;;
55633;SDS011;41504;53.162;6.788;2022-12-10T02:51:43;45.65;;;25.10;;
55633;SDS011;41504;53.162;6.788;2022-12-10T03:00:00;52.22;;;28.05;;
55633;SDS011;41504;53.162;6.788;2022-12-10T03:05:42;51.50;;;28.05;;
55633;SDS011;41504;53.162;6.788;2022-12-10T03:08:24;52.55;;;26.58;;
55633;SDS011;41504;53.162;6.788;2022-12-10T03:10:58;52.08;;;26.95;;
55633;SDS011;41504;53.162;6.788;2022-12-10T03:13:35;49.00;;;26.15;;
55633;SDS011;41504;53.162;6.788;2022-12-10T03:16:15;49.78;;;26.02;;
55633;SDS011;41504;53.162;6.788;2022-12-10T03:18:44;48.92;;;26.38;;
55633;SDS011;41504;53.162;6.788;2022-12-10T03:21:12;50.03;;;27.13;;
55633;SDS011;41504;53.162;6.788;2022-12-10T03:23:41;53.55;;;26.65;;
55633;SDS011;41504;53.162;6.788;2022-12-10T03:26:10;51.67;;;28.33;;
55633;SDS011;41504;53.162;6.788;2022-12-10T03:28:41;50.92;;;27.33;;
55633;SDS011;41504;53.162;6.788;2022-12-10T03:31:12;51.13;;;27.80;;
55633;SDS011;41504;53.162;6.788;2022-12-10T03:33:39;54.22;;;27.98;;
55633;SDS011;41504;53.162;6.788;2022-12-10T03:36:08;55.17;;;29.05;;
55633;SDS011;41504;53.162;6.788;2022-12-10T03:38:35;54.78;;;27.27;;
55633;SDS011;41504;53.162;6.788;2022-12-10T03:41:02;52.20;;;26.67;;
55633;SDS011;41504;53.162;6.788;2022-12-10T03:43:28;54.45;;;28.90;;
55633;SDS011;41504;53.162;6.788;2022-12-10T03:45:54;53.67;;;28.95;;
55633;SDS011;41504;53.162;6.788;2022-12-10T03:48:20;53.00;;;28.42;;
55633;SDS011;41504;53.162;6.788;2022-12-10T03:50:45;49.90;;;27.80;;
55633;SDS011;41504;53.162;6.788;2022-12-10T03:53:11;57.00;;;29.10;;
55633;SDS011;41504;53.162;6.788;2022-12-10T03:55:37;55.08;;;27.80;;
55633;SDS011;41504;53.162;6.788;2022-12-10T03:58:03;50.03;;;28.35;;
55633;SDS011;41504;53.162;6.788;2022-12-10T04:00:28;57.55;;;29.50;;
55633;SDS011;41504;53.162;6.788;2022-12-10T04:02:54;52.70;;;28.65;;
55633;SDS011;41504;53.162;6.788;2022-12-10T04:05:20;55.45;;;29.73;;
55633;SDS011;41504;53.162;6.788;2022-12-10T04:07:46;54.80;;;28.75;;
55633;SDS011;41504;53.162;6.788;2022-12-10T04:10:11;56.10;;;29.30;;
55633;SDS011;41504;53.162;6.788;2022-12-10T04:12:37;54.92;;;29.38;;
55633;SDS011;41504;53.162;6.788;2022-12-10T04:15:03;57.85;;;29.55;;
55633;SDS011;41504;53.162;6.788;2022-12-10T04:17:48;52.70;;;28.63;;
55633;SDS011;41504;53.162;6.788;2022-12-10T04:20:14;56.08;;;29.35;;
55633;SDS011;41504;53.162;6.788;2022-12-10T04:22:58;54.42;;;28.42;;
55633;SDS011;41504;53.162;6.788;2022-12-10T04:25:42;52.90;;;28.40;;
55633;SDS011;41504;53.162;6.788;2022-12-10T04:28:29;59.97;;;30.42;;
55633;SDS011;41504;53.162;6.788;2022-12-10T04:30:58;57.60;;;29.35;;
55633;SDS011;41504;53.162;6.788;2022-12-10T04:33:24;57.22;;;29.40;;
55633;SDS011;41504;53.162;6.788;2022-12-10T04:35:49;52.97;;;29.17;;
55633;SDS011;41504;53.162;6.788;2022-12-10T04:38:15;58.78;;;31.27;;
55633;SDS011;41504;53.162;6.788;2022-12-10T04:40:41;57.03;;;30.23;;
55633;SDS011;41504;53.162;6.788;2022-12-10T04:43:09;57.90;;;30.77;;
55633;SDS011;41504;53.162;6.788;2022-12-10T04:45:38;60.08;;;29.92;;
55633;SDS011;41504;53.162;6.788;2022-12-10T04:48:04;52.10;;;28.92;;
55633;SDS011;41504;53.162;6.788;2022-12-10T04:50:29;58.78;;;29.80;;
55633;SDS011;41504;53.162;6.788;2022-12-10T04:52:55;54.85;;;29.63;;
55633;SDS011;41504;53.162;6.788;2022-12-10T04:55:21;58.60;;;29.42;;
55633;SDS011;41504;53.162;6.788;2022-12-10T04:57:46;56.55;;;29.92;;
55633;SDS011;41504;53.162;6.788;2022-12-10T05:00:12;58.58;;;31.30;;
55633;SDS011;41504;53.162;6.788;2022-12-10T05:02:38;59.75;;;30.58;;
55633;SDS011;41504;53.162;6.788;2022-12-10T05:05:04;57.00;;;29.40;;
55633;SDS011;41504;53.162;6.788;2022-12-10T05:07:30;62.05;;;31.42;;
55633;SDS011;41504;53.162;6.788;2022-12-10T05:09:55;61.00;;;30.67;;
55633;SDS011;41504;53.162;6.788;2022-12-10T05:12:21;57.83;;;30.60;;
55633;SDS011;41504;53.162;6.788;2022-12-10T05:14:47;60.75;;;30.75;;
55633;SDS011;41504;53.162;6.788;2022-12-10T05:17:12;61.17;;;31.35;;
55633;SDS011;41504;53.162;6.788;2022-12-10T05:19:38;59.95;;;29.98;;
55633;SDS011;41504;53.162;6.788;2022-12-10T05:22:04;64.70;;;33.90;;
55633;SDS011;41504;53.162;6.788;2022-12-10T05:24:48;56.58;;;30.92;;
55633;SDS011;41504;53.162;6.788;2022-12-10T05:27:13;63.83;;;33.40;;
55633;SDS011;41504;53.162;6.788;2022-12-10T05:29:39;58.72;;;31.60;;
55633;SDS011;41504;53.162;6.788;2022-12-10T05:32:08;63.60;;;31.75;;
55633;SDS011;41504;53.162;6.788;2022-12-10T05:34:34;62.35;;;31.92;;
55633;SDS011;41504;53.162;6.788;2022-12-10T05:36:59;60.40;;;31.55;;
55633;SDS011;41504;53.162;6.788;2022-12-10T05:39:25;62.75;;;32.72;;
55633;SDS011;41504;53.162;6.788;2022-12-10T05:41:51;57.88;;;30.67;;
55633;SDS011;41504;53.162;6.788;2022-12-10T05:44:16;61.15;;;31.40;;
55633;SDS011;41504;53.162;6.788;2022-12-10T05:46:42;59.03;;;30.75;;
55633;SDS011;41504;53.162;6.788;2022-12-10T05:49:08;58.97;;;31.08;;
55633;SDS011;41504;53.162;6.788;2022-12-10T05:51:34;57.40;;;30.42;;
55633;SDS011;41504;53.162;6.788;2022-12-10T05:54:02;61.83;;;32.65;;
55633;SDS011;41504;53.162;6.788;2022-12-10T05:56:28;60.38;;;33.63;;
55633;SDS011;41504;53.162;6.788;2022-12-10T05:58:59;63.22;;;32.58;;
55633;SDS011;41504;53.162;6.788;2022-12-10T06:01:27;65.30;;;33.28;;
55633;SDS011;41504;53.162;6.788;2022-12-10T06:03:57;63.03;;;32.70;;
55633;SDS011;41504;53.162;6.788;2022-12-10T06:06:28;62.10;;;32.30;;
55633;SDS011;41504;53.162;6.788;2022-12-10T06:08:56;66.50;;;33.80;;
55633;SDS011;41504;53.162;6.788;2022-12-10T06:11:23;67.97;;;33.97;;
55633;SDS011;41504;53.162;6.788;2022-12-10T06:13:49;63.20;;;32.83;;
55633;SDS011;41504;53.162;6.788;2022-12-10T06:16:15;67.65;;;31.88;;
55633;SDS011;41504;53.162;6.788;2022-12-10T06:18:41;59.72;;;32.22;;
55633;SDS011;41504;53.162;6.788;2022-12-10T06:21:12;61.33;;;30.80;;
55633;SDS011;41504;53.162;6.788;2022-12-10T06:23:40;65.93;;;34.15;;
55633;SDS011;41504;53.162;6.788;2022-12-10T06:26:07;63.92;;;32.42;;
55633;SDS011;41504;53.162;6.788;2022-12-10T06:28:35;65.15;;;33.42;;
55633;SDS011;41504;53.162;6.788;2022-12-10T06:31:02;69.53;;;34.53;;
55633;SDS011;41504;53.162;6.788;2022-12-10T06:33:28;65.43;;;32.83;;
55633;SDS011;41504;53.162;6.788;2022-12-10T06:35:56;60.03;;;32.47;;
55633;SDS011;41504;53.162;6.788;2022-12-10T06:38:22;65.55;;;33.83;;
55633;SDS011;41504;53.162;6.788;2022-12-10T06:40:48;66.25;;;33.78;;
55633;SDS011;41504;53.162;6.788;2022-12-10T06:43:13;61.80;;;32.88;;
55633;SDS011;41504;53.162;6.788;2022-12-10T06:45:40;67.30;;;33.50;;
55633;SDS011;41504;53.162;6.788;2022-12-10T06:48:06;65.65;;;34.03;;
55633;SDS011;41504;53.162;6.788;2022-12-10T06:50:32;62.22;;;31.83;;
55633;SDS011;41504;53.162;6.788;2022-12-10T06:52:59;65.43;;;33.17;;
55633;SDS011;41504;53.162;6.788;2022-12-10T06:55:25;60.72;;;32.13;;
55633;SDS011;41504;53.162;6.788;2022-12-10T06:57:51;62.00;;;32.70;;
55633;SDS011;41504;53.162;6.788;2022-12-10T07:00:17;70.47;;;34.45;;
55633;SDS011;41504;53.162;6.788;2022-12-10T07:02:43;63.92;;;32.30;;
55633;SDS011;41504;53.162;6.788;2022-12-10T07:05:09;66.28;;;33.25;;
55633;SDS011;41504;53.162;6.788;2022-12-10T07:07:35;66.63;;;33.53;;
55633;SDS011;41504;53.162;6.788;2022-12-10T07:10:01;59.47;;;31.05;;
55633;SDS011;41504;53.162;6.788;2022-12-10T07:12:28;67.90;;;33.50;;
55633;SDS011;41504;53.162;6.788;2022-12-10T07:14:53;61.58;;;32.63;;
55633;SDS011;41504;53.162;6.788;2022-12-10T07:17:19;62.25;;;31.88;;
55633;SDS011;41504;53.162;6.788;2022-12-10T07:19:45;64.43;;;32.95;;
55633;SDS011;41504;53.162;6.788;2022-12-10T07:22:10;71.28;;;34.42;;
55633;SDS011;41504;53.162;6.788;2022-12-10T07:24:36;68.13;;;34.05;;
55633;SDS011;41504;53.162;6.788;2022-12-10T07:27:04;71.07;;;34.88;;
55633;SDS011;41504;53.162;6.788;2022-12-10T07:29:33;72.15;;;35.28;;
55633;SDS011;41504;53.162;6.788;2022-12-10T07:31:59;68.45;;;34.67;;
55633;SDS011;41504;53.162;6.788;2022-12-10T07:34:25;71.25;;;37.05;;
55633;SDS011;41504;53.162;6.788;2022-12-10T07:36:51;68.30;;;34.72;;
55633;SDS011;41504;53.162;6.788;2022-12-10T07:39:20;70.80;;;34.38;;
55633;SDS011;41504;53.162;6.788;2022-12-10T07:41:49;70.38;;;35.30;;
55633;SDS011;41504;53.162;6.788;2022-12-10T07:44:16;71.18;;;36.08;;
55633;SDS011;41504;53.162;6.788;2022-12-10T07:46:43;72.82;;;35.67;;
55633;SDS011;41504;53.162;6.788;2022-12-10T07:49:09;74.80;;;35.83;;
55633;SDS011;41504;53.162;6.788;2022-12-10T07:51:35;74.88;;;34.88;;
55633;SDS011;41504;53.162;6.788;2022-12-10T07:54:04;76.32;;;36.78;;
55633;SDS011;41504;53.162;6.788;2022-12-10T07:56:33;75.72;;;37.65;;
55633;SDS011;41504;53.162;6.788;2022-12-10T07:58:58;70.72;;;36.38;;
55633;SDS011;41504;53.162;6.788;2022-12-10T08:01:25;70.72;;;34.90;;
55633;SDS011;41504;53.162;6.788;2022-12-10T08:03:51;77.22;;;37.85;;
55633;SDS011;41504;53.162;6.788;2022-12-10T08:06:21;74.97;;;34.90;;
55633;SDS011;41504;53.162;6.788;2022-12-10T08:08:47;79.43;;;37.70;;
55633;SDS011;41504;53.162;6.788;2022-12-10T08:11:16;74.75;;;37.75;;
55633;SDS011;41504;53.162;6.788;2022-12-10T08:13:43;72.90;;;36.85;;
55633;SDS011;41504;53.162;6.788;2022-12-10T08:16:16;80.32;;;35.58;;
55633;SDS011;41504;53.162;6.788;2022-12-10T08:18:44;78.60;;;38.10;;
55633;SDS011;41504;53.162;6.788;2022-12-10T08:21:14;89.85;;;40.75;;
55633;SDS011;41504;53.162;6.788;2022-12-10T08:23:45;86.82;;;39.08;;
55633;SDS011;41504;53.162;6.788;2022-12-10T08:26:16;85.15;;;39.90;;
55633;SDS011;41504;53.162;6.788;2022-12-10T08:28:47;82.93;;;38.22;;
55633;SDS011;41504;53.162;6.788;2022-12-10T08:31:20;84.70;;;40.25;;
55633;SDS011;41504;53.162;6.788;2022-12-10T08:33:46;83.65;;;40.38;;
55633;SDS011;41504;53.162;6.788;2022-12-10T08:36:13;81.35;;;36.10;;
55633;SDS011;41504;53.162;6.788;2022-12-10T08:38:41;81.75;;;38.85;;
55633;SDS011;41504;53.162;6.788;2022-12-10T08:41:12;78.75;;;37.33;;
55633;SDS011;41504;53.162;6.788;2022-12-10T08:43:47;78.10;;;37.47;;
55633;SDS011;41504;53.162;6.788;2022-12-10T08:46:15;79.50;;;38.97;;
55633;SDS011;41504;53.162;6.788;2022-12-10T08:48:41;80.28;;;37.05;;
55633;SDS011;41504;53.162;6.788;2022-12-10T08:51:09;82.10;;;39.13;;
55633;SDS011;41504;53.162;6.788;2022-12-10T08:53:38;84.88;;;37.72;;
55633;SDS011;41504;53.162;6.788;2022-12-10T08:56:07;80.18;;;38.08;;
55633;SDS011;41504;53.162;6.788;2022-12-10T08:58:32;84.07;;;38.03;;
55633;SDS011;41504;53.162;6.788;2022-12-10T09:00:58;81.55;;;38.65;;
55633;SDS011;41504;53.162;6.788;2022-12-10T09:03:26;84.93;;;39.33;;
55633;SDS011;41504;53.162;6.788;2022-12-10T09:05:52;89.10;;;40.30;;
55633;SDS011;41504;53.162;6.788;2022-12-10T09:08:17;88.38;;;39.47;;
55633;SDS011;41504;53.162;6.788;2022-12-10T09:10:43;81.07;;;37.13;;
55633;SDS011;41504;53.162;6.788;2022-12-10T09:13:09;85.82;;;37.08;;
55633;SDS011;41504;53.162;6.788;2022-12-10T09:15:35;88.65;;;39.10;;
55633;SDS011;41504;53.162;6.788;2022-12-10T09:18:01;84.90;;;37.70;;
55633;SDS011;41504;53.162;6.788;2022-12-10T09:20:26;88.32;;;40.05;;
55633;SDS011;41504;53.162;6.788;2022-12-10T09:22:52;87.53;;;40.40;;
55633;SDS011;41504;53.162;6.788;2022-12-10T09:25:18;89.68;;;40.28;;
55633;SDS011;41504;53.162;6.788;2022-12-10T09:27:46;89.00;;;39.17;;
55633;SDS011;41504;53.162;6.788;2022-12-10T09:30:12;87.25;;;42.28;;
55633;SDS011;41504;53.162;6.788;2022-12-10T09:32:38;92.80;;;40.08;;
55633;SDS011;41504;53.162;6.788;2022-12-10T09:35:09;92.40;;;40.88;;
55633;SDS011;41504;53.162;6.788;2022-12-10T09:37:38;94.45;;;41.75;;
55633;SDS011;41504;53.162;6.788;2022-12-10T09:40:04;97.13;;;42.67;;
55633;SDS011;41504;53.162;6.788;2022-12-10T09:51:04;91.80;;;40.97;;
55633;SDS011;41504;53.162;6.788;2022-12-10T09:53:31;89.20;;;41.03;;
55633;SDS011;41504;53.162;6.788;2022-12-10T09:55:58;89.70;;;40.20;;
55633;SDS011;41504;53.162;6.788;2022-12-10T09:58:27;85.25;;;39.03;;
55633;SDS011;41504;53.162;6.788;2022-12-10T10:01:03;88.40;;;39.47;;
55633;SDS011;41504;53.162;6.788;2022-12-10T10:03:31;93.70;;;40.97;;
55633;SDS011;41504;53.162;6.788;2022-12-10T10:06:03;86.53;;;38.17;;
55633;SDS011;41504;53.162;6.788;2022-12-10T10:08:33;83.63;;;37.92;;
55633;SDS011;41504;53.162;6.788;2022-12-10T10:11:03;79.95;;;36.13;;
55633;SDS011;41504;53.162;6.788;2022-12-10T10:13:36;87.63;;;38.85;;
55633;SDS011;41504;53.162;6.788;2022-12-10T10:16:47;94.32;;;42.10;;
55633;SDS011;41504;53.162;6.788;2022-12-10T10:21:25;83.00;;;39.70;;
55633;SDS011;41504;53.162;6.788;2022-12-10T10:23:56;99.00;;;40.75;;
55633;SDS011;41504;53.162;6.788;2022-12-10T10:26:26;91.97;;;40.05;;
55633;SDS011;41504;53.162;6.788;2022-12-10T10:28:54;89.55;;;38.95;;
55633;SDS011;41504;53.162;6.788;2022-12-10T10:31:25;81.05;;;36.55;;
55633;SDS011;41504;53.162;6.788;2022-12-10T10:33:56;84.18;;;37.45;;
55633;SDS011;41504;53.162;6.788;2022-12-10T10:36:26;75.00;;;32.45;;
55633;SDS011;41504;53.162;6.788;2022-12-10T10:39:10;76.63;;;35.58;;
55633;SDS011;41504;53.162;6.788;2022-12-10T10:41:47;81.30;;;35.17;;
55633;SDS011;41504;53.162;6.788;2022-12-10T10:46:49;90.22;;;39.22;;
55633;SDS011;41504;53.162;6.788;2022-12-10T10:49:24;92.18;;;39.08;;
55633;SDS011;41504;53.162;6.788;2022-12-10T10:52:04;90.60;;;38.05;;
55633;SDS011;41504;53.162;6.788;2022-12-10T10:57:08;80.35;;;37.65;;
55633;SDS011;41504;53.162;6.788;2022-12-10T10:59:48;86.20;;;37.78;;
55633;SDS011;41504;53.162;6.788;2022-12-10T11:02:29;79.80;;;37.63;;
55633;SDS011;41504;53.162;6.788;2022-12-10T11:05:07;83.00;;;38.67;;
55633;SDS011;41504;53.162;6.788;2022-12-10T11:08:05;80.88;;;37.40;;
55633;SDS011;41504;53.162;6.788;2022-12-10T11:10:38;82.90;;;37.80;;
55633;SDS011;41504;53.162;6.788;2022-12-10T11:13:24;73.63;;;34.90;;
55633;SDS011;41504;53.162;6.788;2022-12-10T11:15:57;81.47;;;38.42;;
55633;SDS011;41504;53.162;6.788;2022-12-10T11:18:38;89.72;;;38.22;;
55633;SDS011;41504;53.162;6.788;2022-12-10T11:21:17;74.43;;;35.63;;
55633;SDS011;41504;53.162;6.788;2022-12-10T11:23:48;73.35;;;34.45;;
55633;SDS011;41504;53.162;6.788;2022-12-10T11:29:05;81.20;;;37.90;;
55633;SDS011;41504;53.162;6.788;2022-12-10T11:32:46;79.88;;;36.20;;
55633;SDS011;41504;53.162;6.788;2022-12-10T11:37:38;80.35;;;35.58;;
55633;SDS011;41504;53.162;6.788;2022-12-10T11:40:45;79.55;;;38.47;;
55633;SDS011;41504;53.162;6.788;2022-12-10T11:49:13;81.60;;;37.55;;
55633;SDS011;41504;53.162;6.788;2022-12-10T11:58:17;78.95;;;37.60;;
55633;SDS011;41504;53.162;6.788;2022-12-10T12:14:46;70.50;;;33.97;;
55633;SDS011;41504;53.162;6.788;2022-12-10T12:17:19;75.63;;;34.38;;
55633;SDS011;41504;53.162;6.788;2022-12-10T12:19:59;72.80;;;33.47;;
55633;SDS011;41504;53.162;6.788;2022-12-10T12:22:37;67.50;;;30.98;;
55633;SDS011;41504;53.162;6.788;2022-12-10T12:27:50;65.35;;;30.85;;
55633;SDS011;41504;53.162;6.788;2022-12-10T12:30:24;68.85;;;30.33;;
55633;SDS011;41504;53.162;6.788;2022-12-10T12:35:50;69.00;;;31.33;;
55633;SDS011;41504;53.162;6.788;2022-12-10T12:41:04;62.58;;;29.70;;
55633;SDS011;41504;53.162;6.788;2022-12-10T12:43:47;70.50;;;31.58;;
55633;SDS011;41504;53.162;6.788;2022-12-10T12:46:30;72.60;;;31.63;;
55633;SDS011;41504;53.162;6.788;2022-12-10T12:49:02;69.07;;;31.10;;
55633;SDS011;41504;53.162;6.788;2022-12-10T12:51:34;72.65;;;32.03;;
55633;SDS011;41504;53.162;6.788;2022-12-10T12:54:25;74.65;;;33.03;;
55633;SDS011;41504;53.162;6.788;2022-12-10T12:57:06;70.70;;;32.00;;
55633;SDS011;41504;53.162;6.788;2022-12-10T13:05:35;68.00;;;29.52;;
55633;SDS011;41504;53.162;6.788;2022-12-10T13:08:22;64.90;;;29.33;;
55633;SDS011;41504;53.162;6.788;2022-12-10T13:10:59;58.75;;;27.70;;
55633;SDS011;41504;53.162;6.788;2022-12-10T13:13:41;67.30;;;29.27;;
55633;SDS011;41504;53.162;6.788;2022-12-10T13:22:03;63.30;;;30.75;;
55633;SDS011;41504;53.162;6.788;2022-12-10T13:32:16;69.80;;;32.03;;
55633;SDS011;41504;53.162;6.788;2022-12-10T13:34:44;73.78;;;30.65;;
55633;SDS011;41504;53.162;6.788;2022-12-10T13:37:14;73.45;;;31.75;;
55633;SDS011;41504;53.162;6.788;2022-12-10T13:39:48;62.70;;;27.85;;
55633;SDS011;41504;53.162;6.788;2022-12-10T13:42:25;65.70;;;29.05;;
55633;SDS011;41504;53.162;6.788;2022-12-10T13:47:48;59.30;;;27.63;;
55633;SDS011;41504;53.162;6.788;2022-12-10T13:52:56;57.17;;;26.67;;
55633;SDS011;41504;53.162;6.788;2022-12-10T14:04:26;56.03;;;24.13;;
55633;SDS011;41504;53.162;6.788;2022-12-10T14:07:16;50.22;;;23.38;;
55633;SDS011;41504;53.162;6.788;2022-12-10T14:09:46;53.85;;;24.02;;
55633;SDS011;41504;53.162;6.788;2022-12-10T14:12:26;50.10;;;23.17;;
55633;SDS011;41504;53.162;6.788;2022-12-10T14:15:03;52.33;;;23.63;;
55633;SDS011;41504;53.162;6.788;2022-12-10T14:18:02;51.38;;;22.75;;
55633;SDS011;41504;53.162;6.788;2022-12-10T14:20:32;53.40;;;25.52;;
55633;SDS011;41504;53.162;6.788;2022-12-10T14:23:03;50.45;;;24.58;;
55633;SDS011;41504;53.162;6.788;2022-12-10T14:25:49;50.65;;;23.10;;
55633;SDS011;41504;53.162;6.788;2022-12-10T14:28:17;50.55;;;22.60;;
55633;SDS011;41504;53.162;6.788;2022-12-10T14:30:44;51.50;;;22.77;;
55633;SDS011;41504;53.162;6.788;2022-12-10T14:33:19;43.35;;;22.45;;
55633;SDS011;41504;53.162;6.788;2022-12-10T14:35:47;55.75;;;24.25;;
55633;SDS011;41504;53.162;6.788;2022-12-10T14:38:18;49.05;;;22.83;;
55633;SDS011;41504;53.162;6.788;2022-12-10T14:40:54;49.30;;;23.05;;
55633;SDS011;41504;53.162;6.788;2022-12-10T14:43:21;51.15;;;21.83;;
55633;SDS011;41504;53.162;6.788;2022-12-10T14:45:51;50.30;;;21.85;;
55633;SDS011;41504;53.162;6.788;2022-12-10T14:48:20;42.85;;;20.60;;
55633;SDS011;41504;53.162;6.788;2022-12-10T14:50:50;49.55;;;23.33;;
55633;SDS011;41504;53.162;6.788;2022-12-10T14:53:18;50.67;;;21.98;;
55633;SDS011;41504;53.162;6.788;2022-12-10T14:55:48;50.00;;;21.75;;
55633;SDS011;41504;53.162;6.788;2022-12-10T14:58:22;45.40;;;21.25;;
55633;SDS011;41504;53.162;6.788;2022-12-10T15:01:03;47.38;;;22.17;;
55633;SDS011;41504;53.162;6.788;2022-12-10T15:03:30;45.55;;;21.58;;
55633;SDS011;41504;53.162;6.788;2022-12-10T15:06:01;53.22;;;24.20;;
55633;SDS011;41504;53.162;6.788;2022-12-10T15:08:32;42.85;;;21.50;;
55633;SDS011;41504;53.162;6.788;2022-12-10T15:10:59;50.70;;;24.00;;
55633;SDS011;41504;53.162;6.788;2022-12-10T15:13:32;44.28;;;20.65;;
55633;SDS011;41504;53.162;6.788;2022-12-10T15:16:19;45.25;;;21.00;;
55633;SDS011;41504;53.162;6.788;2022-12-10T15:19:24;49.45;;;22.20;;
55633;SDS011;41504;53.162;6.788;2022-12-10T15:21:58;45.45;;;21.92;;
55633;SDS011;41504;53.162;6.788;2022-12-10T15:24:45;48.28;;;22.63;;
55633;SDS011;41504;53.162;6.788;2022-12-10T15:27:18;48.88;;;22.35;;
55633;SDS011;41504;53.162;6.788;2022-12-10T15:29:48;51.83;;;23.30;;
55633;SDS011;41504;53.162;6.788;2022-12-10T15:32:22;55.97;;;25.10;;
55633;SDS011;41504;53.162;6.788;2022-12-10T15:34:55;55.47;;;26.17;;
55633;SDS011;41504;53.162;6.788;2022-12-10T15:37:35;61.42;;;27.27;;
55633;SDS011;41504;53.162;6.788;2022-12-10T15:40:05;78.90;;;43.67;;
55633;SDS011;41504;53.162;6.788;2022-12-10T15:42:46;58.75;;;27.00;;
55633;SDS011;41504;53.162;6.788;2022-12-10T15:45:16;60.00;;;26.48;;
55633;SDS011;41504;53.162;6.788;2022-12-10T15:47:48;65.05;;;28.85;;
55633;SDS011;41504;53.162;6.788;2022-12-10T15:50:15;55.65;;;27.50;;
55633;SDS011;41504;53.162;6.788;2022-12-10T15:52:41;63.65;;;25.63;;
55633;SDS011;41504;53.162;6.788;2022-12-10T15:55:10;58.50;;;25.10;;
55633;SDS011;41504;53.162;6.788;2022-12-10T15:57:37;65.30;;;25.67;;
55633;SDS011;41504;53.162;6.788;2022-12-10T16:00:14;66.85;;;27.45;;
55633;SDS011;41504;53.162;6.788;2022-12-10T16:05:26;74.38;;;27.65;;
55633;SDS011;41504;53.162;6.788;2022-12-10T16:08:11;80.50;;;33.60;;
55633;SDS011;41504;53.162;6.788;2022-12-10T16:10:44;79.05;;;31.60;;
55633;SDS011;41504;53.162;6.788;2022-12-10T16:13:12;86.10;;;30.02;;
55633;SDS011;41504;53.162;6.788;2022-12-10T16:15:52;80.20;;;30.13;;
55633;SDS011;41504;53.162;6.788;2022-12-10T16:18:22;105.38;;;42.83;;
55633;SDS011;41504;53.162;6.788;2022-12-10T16:20:49;90.35;;;31.60;;
55633;SDS011;41504;53.162;6.788;2022-12-10T16:23:15;84.90;;;29.60;;
55633;SDS011;41504;53.162;6.788;2022-12-10T16:25:41;89.30;;;29.67;;
55633;SDS011;41504;53.162;6.788;2022-12-10T16:28:10;96.55;;;33.00;;
55633;SDS011;41504;53.162;6.788;2022-12-10T16:30:39;90.65;;;29.48;;
55633;SDS011;41504;53.162;6.788;2022-12-10T16:33:08;94.80;;;34.72;;
55633;SDS011;41504;53.162;6.788;2022-12-10T16:35:34;97.22;;;32.17;;
55633;SDS011;41504;53.162;6.788;2022-12-10T16:37:59;99.88;;;37.97;;